Biotrans — JWPN — position and weather

sailwx.info

Track history (hours):
 
Tides and Currents Weather Stations Pressure Air Temp Water Temp Dewpoint Dewpoint Depression Visibility Wind Speed Wind Dir Waves Ship Positions

Biotrans

Last reported at 2016-Sep-29 21:33 UTC. Time now 2016-Sep-29 22:12 UTC.
Position N 67°11' E 014°06'.

Length 55 m; draft 5.5 m.

Type: Cargo ship. MMSI: 259260000.

Date/timePositionNaut miles runAvg speedWind from/ knotsBaromVisibWave heightAir tempDewpointWater temp
2016-Sep-29 21:33N 67°11' E 014°06'8 7.9
2016-Sep-29 20:33N 67°18' E 014°17'8 8.0
2016-Sep-29 19:33N 67°25' E 014°27'121 5.5
2016-Sep-28 21:33N 69°06' E 017°29'12 6.2
2016-Sep-28 19:33N 69°13' E 017°58'  
2016-Sep-25 15:33N 69°18' E 017°58'8 8.0
2016-Sep-25 14:33N 69°10' E 017°56'10 5.1
2016-Sep-25 12:33N 69°05' E 017°31'0 0.0
2016-Sep-25 11:33N 69°05' E 017°31'0 0.2
2016-Sep-25 10:33N 69°06' E 017°31'0 0.0
2016-Sep-25 09:33N 69°06' E 017°31'0 0.0
2016-Sep-25 07:33N 69°06' E 017°31'0 0.1
2016-Sep-25 04:33N 69°05' E 017°31'0 0.0
2016-Sep-25 00:33N 69°05' E 017°31'0 0.0
2016-Sep-24 22:32N 69°05' E 017°31'0 0.0
2016-Sep-24 21:33N 69°05' E 017°31'0 0.0
2016-Sep-24 19:33N 69°05' E 017°31'0 0.0
2016-Sep-24 18:33N 69°05' E 017°31'0 0.2
2016-Sep-24 17:33N 69°06' E 017°31'0 0.0
2016-Sep-24 16:32N 69°06' E 017°31'0 0.1
2016-Sep-24 14:33N 69°05' E 017°31'0 0.0
2016-Sep-24 12:33N 69°05' E 017°31'0 0.0
2016-Sep-24 10:33N 69°05' E 017°31'0 0.0
2016-Sep-24 09:33N 69°05' E 017°31'0 0.0
2016-Sep-24 03:33N 69°05' E 017°31'0 0.0
2016-Sep-24 02:33N 69°05' E 017°31'0 0.0
2016-Sep-24 01:33N 69°05' E 017°31'0 0.0
2016-Sep-24 00:33N 69°05' E 017°31'0 0.0
2016-Sep-23 19:33N 69°05' E 017°31'0 0.0
2016-Sep-23 17:33N 69°05' E 017°31'0 0.0
2016-Sep-23 16:33N 69°06' E 017°31'0 0.0
2016-Sep-23 15:33N 69°06' E 017°31'0 0.0
2016-Sep-23 13:32N 69°06' E 017°31'4 1.1
2016-Sep-23 09:33N 69°09' E 017°39'4 1.5
2016-Sep-23 06:32N 69°05' E 017°31'2 0.8
2016-Sep-23 04:32N 69°05' E 017°26'5 4.3
2016-Sep-23 03:22N 69°01' E 017°17'3 0.4
2016-Sep-22 20:32N 68°60' E 017°12'13 1.6
2016-Sep-22 12:33N 69°09' E 017°39'  
2016-Sep-19 23:33N 67°25' E 014°30'  
Track history (hours):
 
Tides and Currents Weather Stations Pressure Air Temp Water Temp Dewpoint Dewpoint Depression Visibility Wind Speed Wind Dir Waves Ship Positions

Biotrans

Last reported at 2016-Sep-29 21:33 UTC. Time now 2016-Sep-29 22:12 UTC.
Position N 67°11' E 014°06'.

Length 55 m; draft 5.5 m.

Type: Cargo ship. MMSI: 259260000.

Date/timePositionNaut miles runAvg speedWind from/ knotsBaromVisibWave heightAir tempDewpointWater temp
2016-Sep-29 21:33N 67°11' E 014°06'8 7.9
2016-Sep-29 20:33N 67°18' E 014°17'8 8.0
2016-Sep-29 19:33N 67°25' E 014°27'121 5.5
2016-Sep-28 21:33N 69°06' E 017°29'12 6.2
2016-Sep-28 19:33N 69°13' E 017°58'  
2016-Sep-25 15:33N 69°18' E 017°58'8 8.0
2016-Sep-25 14:33N 69°10' E 017°56'10 5.1
2016-Sep-25 12:33N 69°05' E 017°31'0 0.0
2016-Sep-25 11:33N 69°05' E 017°31'0 0.2
2016-Sep-25 10:33N 69°06' E 017°31'0 0.0
2016-Sep-25 09:33N 69°06' E 017°31'0 0.0
2016-Sep-25 07:33N 69°06' E 017°31'0 0.1
2016-Sep-25 04:33N 69°05' E 017°31'0 0.0
2016-Sep-25 00:33N 69°05' E 017°31'0 0.0
2016-Sep-24 22:32N 69°05' E 017°31'0 0.0
2016-Sep-24 21:33N 69°05' E 017°31'0 0.0
2016-Sep-24 19:33N 69°05' E 017°31'0 0.0
2016-Sep-24 18:33N 69°05' E 017°31'0 0.2
2016-Sep-24 17:33N 69°06' E 017°31'0 0.0
2016-Sep-24 16:32N 69°06' E 017°31'0 0.1
2016-Sep-24 14:33N 69°05' E 017°31'0 0.0
2016-Sep-24 12:33N 69°05' E 017°31'0 0.0
2016-Sep-24 10:33N 69°05' E 017°31'0 0.0
2016-Sep-24 09:33N 69°05' E 017°31'0 0.0
2016-Sep-24 03:33N 69°05' E 017°31'0 0.0
2016-Sep-24 02:33N 69°05' E 017°31'0 0.0
2016-Sep-24 01:33N 69°05' E 017°31'0 0.0
2016-Sep-24 00:33N 69°05' E 017°31'0 0.0
2016-Sep-23 19:33N 69°05' E 017°31'0 0.0
2016-Sep-23 17:33N 69°05' E 017°31'0 0.0
2016-Sep-23 16:33N 69°06' E 017°31'0 0.0
2016-Sep-23 15:33N 69°06' E 017°31'0 0.0
2016-Sep-23 13:32N 69°06' E 017°31'4 1.1
2016-Sep-23 09:33N 69°09' E 017°39'4 1.5
2016-Sep-23 06:32N 69°05' E 017°31'2 0.8
2016-Sep-23 04:32N 69°05' E 017°26'5 4.3
2016-Sep-23 03:22N 69°01' E 017°17'3 0.4
2016-Sep-22 20:32N 68°60' E 017°12'13 1.6
2016-Sep-22 12:33N 69°09' E 017°39'  
2016-Sep-19 23:33N 67°25' E 014°30'  

Dump ship's entire track history